sensor_id;sensor_type;location;lat;lon;timestamp;temperature;humidity
31379;DHT22;61664;48.112;11.662;2023-03-17T00:00:43;6.70;72.70
31379;DHT22;61664;48.112;11.662;2023-03-17T00:03:24;6.60;72.70
31379;DHT22;61664;48.112;11.662;2023-03-17T00:05:53;6.60;70.60
31379;DHT22;61664;48.112;11.662;2023-03-17T00:08:24;6.60;72.80
31379;DHT22;61664;48.112;11.662;2023-03-17T00:10:54;6.50;72.70
31379;DHT22;61664;48.112;11.662;2023-03-17T00:13:21;6.40;72.70
31379;DHT22;61664;48.112;11.662;2023-03-17T00:15:59;6.40;72.90
31379;DHT22;61664;48.112;11.662;2023-03-17T00:18:28;6.40;71.20
31379;DHT22;61664;48.112;11.662;2023-03-17T00:20:57;6.40;73.10
31379;DHT22;61664;48.112;11.662;2023-03-17T00:23:24;6.30;73.10
31379;DHT22;61664;48.112;11.662;2023-03-17T00:25:52;6.30;73.10
31379;DHT22;61664;48.112;11.662;2023-03-17T00:28:24;6.30;73.00
31379;DHT22;61664;48.112;11.662;2023-03-17T00:30:58;6.20;72.90
31379;DHT22;61664;48.112;11.662;2023-03-17T00:33:28;6.10;72.40
31379;DHT22;61664;48.112;11.662;2023-03-17T00:35:58;6.20;73.10
31379;DHT22;61664;48.112;11.662;2023-03-17T00:38:26;6.20;73.30
31379;DHT22;61664;48.112;11.662;2023-03-17T00:40:54;6.10;73.30
31379;DHT22;61664;48.112;11.662;2023-03-17T00:43:21;6.10;73.30
31379;DHT22;61664;48.112;11.662;2023-03-17T00:45:47;6.10;73.30
31379;DHT22;61664;48.112;11.662;2023-03-17T00:48:17;6.10;73.40
31379;DHT22;61664;48.112;11.662;2023-03-17T00:50:48;6.10;73.40
31379;DHT22;61664;48.112;11.662;2023-03-17T00:53:18;6.10;73.40
31379;DHT22;61664;48.112;11.662;2023-03-17T00:55:47;6.00;73.30
31379;DHT22;61664;48.112;11.662;2023-03-17T00:58:41;6.00;73.50
31379;DHT22;61664;48.112;11.662;2023-03-17T01:01:09;6.00;69.90
31379;DHT22;61664;48.112;11.662;2023-03-17T01:03:37;5.90;73.40
31379;DHT22;61664;48.112;11.662;2023-03-17T01:06:06;5.90;73.50
31379;DHT22;61664;48.112;11.662;2023-03-17T01:08:35;5.90;73.40
31379;DHT22;61664;48.112;11.662;2023-03-17T01:11:02;6.00;69.50
31379;DHT22;61664;48.112;11.662;2023-03-17T01:13:29;5.90;74.00
31379;DHT22;61664;48.112;11.662;2023-03-17T01:15:56;5.90;73.50
31379;DHT22;61664;48.112;11.662;2023-03-17T01:18:23;5.80;73.50
31379;DHT22;61664;48.112;11.662;2023-03-17T01:20:50;5.80;73.50
31379;DHT22;61664;48.112;11.662;2023-03-17T01:23:18;5.80;73.60
31379;DHT22;61664;48.112;11.662;2023-03-17T01:25:45;5.80;73.60
31379;DHT22;61664;48.112;11.662;2023-03-17T01:28:15;5.70;73.60
31379;DHT22;61664;48.112;11.662;2023-03-17T01:30:44;5.70;73.50
31379;DHT22;61664;48.112;11.662;2023-03-17T01:33:13;5.70;73.60
31379;DHT22;61664;48.112;11.662;2023-03-17T01:35:41;5.70;73.50
31379;DHT22;61664;48.112;11.662;2023-03-17T01:38:09;5.60;73.30
31379;DHT22;61664;48.112;11.662;2023-03-17T01:40:46;5.60;73.40
31379;DHT22;61664;48.112;11.662;2023-03-17T01:43:27;5.60;72.60
31379;DHT22;61664;48.112;11.662;2023-03-17T01:46:19;5.60;71.60
31379;DHT22;61664;48.112;11.662;2023-03-17T01:48:55;5.50;70.70
31379;DHT22;61664;48.112;11.662;2023-03-17T01:51:37;5.50;72.50
31379;DHT22;61664;48.112;11.662;2023-03-17T01:54:34;5.50;73.70
31379;DHT22;61664;48.112;11.662;2023-03-17T01:57:09;5.40;72.50
31379;DHT22;61664;48.112;11.662;2023-03-17T01:59:51;5.40;72.90
31379;DHT22;61664;48.112;11.662;2023-03-17T02:02:42;5.40;73.60
31379;DHT22;61664;48.112;11.662;2023-03-17T02:05:12;5.40;70.70
31379;DHT22;61664;48.112;11.662;2023-03-17T02:07:43;5.40;69.70
31379;DHT22;61664;48.112;11.662;2023-03-17T02:10:12;5.30;73.70
31379;DHT22;61664;48.112;11.662;2023-03-17T02:12:42;5.30;73.70
31379;DHT22;61664;48.112;11.662;2023-03-17T02:15:11;5.20;73.70
31379;DHT22;61664;48.112;11.662;2023-03-17T02:17:39;5.20;73.90
31379;DHT22;61664;48.112;11.662;2023-03-17T02:22:59;5.30;71.10
31379;DHT22;61664;48.112;11.662;2023-03-17T02:25:28;5.20;74.20
31379;DHT22;61664;48.112;11.662;2023-03-17T02:27:59;5.10;74.20
31379;DHT22;61664;48.112;11.662;2023-03-17T02:30:32;5.10;74.10
31379;DHT22;61664;48.112;11.662;2023-03-17T02:33:00;5.10;74.30
31379;DHT22;61664;48.112;11.662;2023-03-17T02:35:28;5.10;74.30
31379;DHT22;61664;48.112;11.662;2023-03-17T02:37:56;5.10;74.30
31379;DHT22;61664;48.112;11.662;2023-03-17T02:40:23;5.10;74.40
31379;DHT22;61664;48.112;11.662;2023-03-17T02:42:50;5.10;74.40
31379;DHT22;61664;48.112;11.662;2023-03-17T02:45:17;5.10;74.50
31379;DHT22;61664;48.112;11.662;2023-03-17T02:47:45;5.10;74.50
31379;DHT22;61664;48.112;11.662;2023-03-17T02:50:22;5.10;74.60
31379;DHT22;61664;48.112;11.662;2023-03-17T02:52:51;5.00;73.80
31379;DHT22;61664;48.112;11.662;2023-03-17T02:55:18;5.10;74.70
31379;DHT22;61664;48.112;11.662;2023-03-17T02:57:46;5.00;74.70
31379;DHT22;61664;48.112;11.662;2023-03-17T03:00:13;5.00;74.80
31379;DHT22;61664;48.112;11.662;2023-03-17T03:02:40;5.00;74.70
31379;DHT22;61664;48.112;11.662;2023-03-17T03:05:12;5.00;74.90
31379;DHT22;61664;48.112;11.662;2023-03-17T03:07:39;5.10;75.00
31379;DHT22;61664;48.112;11.662;2023-03-17T03:10:06;5.10;75.30
31379;DHT22;61664;48.112;11.662;2023-03-17T03:12:36;5.10;74.90
31379;DHT22;61664;48.112;11.662;2023-03-17T03:15:03;5.10;75.00
31379;DHT22;61664;48.112;11.662;2023-03-17T03:17:30;5.10;75.00
31379;DHT22;61664;48.112;11.662;2023-03-17T03:19:57;5.10;75.00
31379;DHT22;61664;48.112;11.662;2023-03-17T03:22:24;5.30;75.20
31379;DHT22;61664;48.112;11.662;2023-03-17T03:24:51;5.10;75.10
31379;DHT22;61664;48.112;11.662;2023-03-17T03:27:18;5.10;75.10
31379;DHT22;61664;48.112;11.662;2023-03-17T03:29:45;5.10;75.20
31379;DHT22;61664;48.112;11.662;2023-03-17T03:32:12;5.20;75.20
31379;DHT22;61664;48.112;11.662;2023-03-17T03:34:39;5.10;75.20
31379;DHT22;61664;48.112;11.662;2023-03-17T03:37:06;5.10;75.10
31379;DHT22;61664;48.112;11.662;2023-03-17T03:39:33;5.20;75.20
31379;DHT22;61664;48.112;11.662;2023-03-17T03:42:00;5.20;75.20
31379;DHT22;61664;48.112;11.662;2023-03-17T03:44:27;5.20;75.20
31379;DHT22;61664;48.112;11.662;2023-03-17T03:46:54;5.10;75.20
31379;DHT22;61664;48.112;11.662;2023-03-17T03:49:21;5.20;75.40
31379;DHT22;61664;48.112;11.662;2023-03-17T03:51:48;5.30;75.40
31379;DHT22;61664;48.112;11.662;2023-03-17T03:54:15;5.20;75.40
31379;DHT22;61664;48.112;11.662;2023-03-17T03:56:42;5.20;75.40
31379;DHT22;61664;48.112;11.662;2023-03-17T03:59:09;5.20;75.40
31379;DHT22;61664;48.112;11.662;2023-03-17T04:01:36;5.20;75.40
31379;DHT22;61664;48.112;11.662;2023-03-17T04:04:04;5.30;75.70
31379;DHT22;61664;48.112;11.662;2023-03-17T04:06:31;5.30;75.70
31379;DHT22;61664;48.112;11.662;2023-03-17T04:08:58;5.30;75.80
31379;DHT22;61664;48.112;11.662;2023-03-17T04:11:25;5.30;75.80
31379;DHT22;61664;48.112;11.662;2023-03-17T04:13:54;5.40;75.70
31379;DHT22;61664;48.112;11.662;2023-03-17T04:16:21;5.40;75.70
31379;DHT22;61664;48.112;11.662;2023-03-17T04:18:48;5.40;75.70
31379;DHT22;61664;48.112;11.662;2023-03-17T04:21:15;5.50;75.80
31379;DHT22;61664;48.112;11.662;2023-03-17T04:23:45;5.40;75.80
31379;DHT22;61664;48.112;11.662;2023-03-17T04:26:12;5.60;76.00
31379;DHT22;61664;48.112;11.662;2023-03-17T04:28:39;5.60;76.00
31379;DHT22;61664;48.112;11.662;2023-03-17T04:31:08;5.50;75.90
31379;DHT22;61664;48.112;11.662;2023-03-17T04:33:37;5.70;75.80
31379;DHT22;61664;48.112;11.662;2023-03-17T04:36:06;5.60;76.00
31379;DHT22;61664;48.112;11.662;2023-03-17T04:38:33;5.60;76.00
31379;DHT22;61664;48.112;11.662;2023-03-17T04:41:00;5.70;76.00
31379;DHT22;61664;48.112;11.662;2023-03-17T04:43:28;5.70;75.90
31379;DHT22;61664;48.112;11.662;2023-03-17T04:45:54;5.80;75.90
31379;DHT22;61664;48.112;11.662;2023-03-17T04:48:21;5.70;75.70
31379;DHT22;61664;48.112;11.662;2023-03-17T04:50:48;5.70;75.70
31379;DHT22;61664;48.112;11.662;2023-03-17T04:53:15;5.80;75.60
31379;DHT22;61664;48.112;11.662;2023-03-17T04:55:42;5.80;75.60
31379;DHT22;61664;48.112;11.662;2023-03-17T04:58:09;5.90;75.50
31379;DHT22;61664;48.112;11.662;2023-03-17T05:00:46;5.90;75.50
31379;DHT22;61664;48.112;11.662;2023-03-17T05:03:13;5.80;75.40
31379;DHT22;61664;48.112;11.662;2023-03-17T05:05:52;5.90;75.40
31379;DHT22;61664;48.112;11.662;2023-03-17T05:08:19;5.80;75.30
31379;DHT22;61664;48.112;11.662;2023-03-17T05:10:46;5.80;75.20
31379;DHT22;61664;48.112;11.662;2023-03-17T05:13:13;5.80;75.20
31379;DHT22;61664;48.112;11.662;2023-03-17T05:15:46;5.80;75.20
31379;DHT22;61664;48.112;11.662;2023-03-17T05:18:14;5.80;74.40
31379;DHT22;61664;48.112;11.662;2023-03-17T05:20:41;5.80;75.20
31379;DHT22;61664;48.112;11.662;2023-03-17T05:23:09;5.80;75.20
31379;DHT22;61664;48.112;11.662;2023-03-17T05:25:36;5.80;75.10
31379;DHT22;61664;48.112;11.662;2023-03-17T05:28:04;5.70;75.10
31379;DHT22;61664;48.112;11.662;2023-03-17T05:30:31;5.80;75.10
31379;DHT22;61664;48.112;11.662;2023-03-17T05:32:59;5.70;75.10
31379;DHT22;61664;48.112;11.662;2023-03-17T05:35:26;5.80;75.20
31379;DHT22;61664;48.112;11.662;2023-03-17T05:37:56;5.70;75.10
31379;DHT22;61664;48.112;11.662;2023-03-17T05:40:23;5.70;75.10
31379;DHT22;61664;48.112;11.662;2023-03-17T05:42:50;5.70;75.20
31379;DHT22;61664;48.112;11.662;2023-03-17T05:45:17;5.70;75.20
31379;DHT22;61664;48.112;11.662;2023-03-17T05:47:44;5.70;75.40
31379;DHT22;61664;48.112;11.662;2023-03-17T05:50:11;5.70;75.60
31379;DHT22;61664;48.112;11.662;2023-03-17T05:52:39;5.80;75.70
31379;DHT22;61664;48.112;11.662;2023-03-17T05:55:07;5.70;75.60
31379;DHT22;61664;48.112;11.662;2023-03-17T05:57:34;5.80;76.10
31379;DHT22;61664;48.112;11.662;2023-03-17T06:00:02;5.80;75.70
31379;DHT22;61664;48.112;11.662;2023-03-17T06:02:31;5.80;76.00
31379;DHT22;61664;48.112;11.662;2023-03-17T06:04:58;5.80;76.10
31379;DHT22;61664;48.112;11.662;2023-03-17T06:07:25;5.90;76.30
31379;DHT22;61664;48.112;11.662;2023-03-17T06:10:03;6.00;76.40
31379;DHT22;61664;48.112;11.662;2023-03-17T06:12:32;6.00;76.40
31379;DHT22;61664;48.112;11.662;2023-03-17T06:14:59;6.10;76.30
31379;DHT22;61664;48.112;11.662;2023-03-17T06:17:26;6.10;76.30
31379;DHT22;61664;48.112;11.662;2023-03-17T06:19:52;6.20;76.50
31379;DHT22;61664;48.112;11.662;2023-03-17T06:22:19;6.20;76.60
31379;DHT22;61664;48.112;11.662;2023-03-17T06:24:46;6.30;76.50
31379;DHT22;61664;48.112;11.662;2023-03-17T06:27:13;6.30;76.30
31379;DHT22;61664;48.112;11.662;2023-03-17T06:29:40;6.40;76.30
31379;DHT22;61664;48.112;11.662;2023-03-17T06:32:08;6.50;76.40
31379;DHT22;61664;48.112;11.662;2023-03-17T06:34:46;6.50;76.50
31379;DHT22;61664;48.112;11.662;2023-03-17T06:37:14;6.60;76.60
31379;DHT22;61664;48.112;11.662;2023-03-17T06:39:42;6.70;76.50
31379;DHT22;61664;48.112;11.662;2023-03-17T06:42:09;6.70;76.30
31379;DHT22;61664;48.112;11.662;2023-03-17T06:44:36;6.80;76.20
31379;DHT22;61664;48.112;11.662;2023-03-17T06:47:03;6.90;76.20
31379;DHT22;61664;48.112;11.662;2023-03-17T06:49:30;6.90;76.10
31379;DHT22;61664;48.112;11.662;2023-03-17T06:51:57;7.00;76.00
31379;DHT22;61664;48.112;11.662;2023-03-17T06:54:24;7.00;76.00
31379;DHT22;61664;48.112;11.662;2023-03-17T06:56:52;7.10;76.10
31379;DHT22;61664;48.112;11.662;2023-03-17T06:59:20;7.20;76.20
31379;DHT22;61664;48.112;11.662;2023-03-17T07:01:48;7.30;76.20
31379;DHT22;61664;48.112;11.662;2023-03-17T07:04:15;7.30;76.10
31379;DHT22;61664;48.112;11.662;2023-03-17T07:06:42;7.40;76.00
31379;DHT22;61664;48.112;11.662;2023-03-17T07:09:10;7.40;75.90
31379;DHT22;61664;48.112;11.662;2023-03-17T07:11:37;7.50;75.90
31379;DHT22;61664;48.112;11.662;2023-03-17T07:14:04;7.60;75.70
31379;DHT22;61664;48.112;11.662;2023-03-17T07:16:31;7.70;75.70
31379;DHT22;61664;48.112;11.662;2023-03-17T07:18:59;7.80;75.90
31379;DHT22;61664;48.112;11.662;2023-03-17T07:21:27;7.80;75.80
31379;DHT22;61664;48.112;11.662;2023-03-17T07:23:54;7.90;76.10
31379;DHT22;61664;48.112;11.662;2023-03-17T07:26:21;8.00;76.20
31379;DHT22;61664;48.112;11.662;2023-03-17T07:28:48;8.10;76.00
31379;DHT22;61664;48.112;11.662;2023-03-17T07:31:15;8.20;76.20
31379;DHT22;61664;48.112;11.662;2023-03-17T07:33:42;8.30;76.30
31379;DHT22;61664;48.112;11.662;2023-03-17T07:36:09;8.50;76.30
31379;DHT22;61664;48.112;11.662;2023-03-17T07:38:36;8.60;76.10
31379;DHT22;61664;48.112;11.662;2023-03-17T07:41:04;8.70;76.00
31379;DHT22;61664;48.112;11.662;2023-03-17T07:43:36;8.80;76.50
31379;DHT22;61664;48.112;11.662;2023-03-17T07:46:04;9.00;77.00
31379;DHT22;61664;48.112;11.662;2023-03-17T07:48:32;9.30;77.00
31379;DHT22;61664;48.112;11.662;2023-03-17T07:50:59;9.80;77.20
31379;DHT22;61664;48.112;11.662;2023-03-17T07:53:27;10.40;77.30
31379;DHT22;61664;48.112;11.662;2023-03-17T07:55:53;11.20;77.00
31379;DHT22;61664;48.112;11.662;2023-03-17T07:58:20;12.10;75.90
31379;DHT22;61664;48.112;11.662;2023-03-17T08:00:47;13.10;74.30
31379;DHT22;61664;48.112;11.662;2023-03-17T08:03:14;14.00;72.00
31379;DHT22;61664;48.112;11.662;2023-03-17T08:05:41;14.90;70.00
31379;DHT22;61664;48.112;11.662;2023-03-17T08:08:10;15.80;68.10
31379;DHT22;61664;48.112;11.662;2023-03-17T08:10:38;16.60;66.30
31379;DHT22;61664;48.112;11.662;2023-03-17T08:13:05;17.30;65.60
31379;DHT22;61664;48.112;11.662;2023-03-17T08:15:32;17.90;64.20
31379;DHT22;61664;48.112;11.662;2023-03-17T08:17:59;18.60;63.00
31379;DHT22;61664;48.112;11.662;2023-03-17T08:20:26;19.20;62.10
31379;DHT22;61664;48.112;11.662;2023-03-17T08:22:53;19.70;60.60
31379;DHT22;61664;48.112;11.662;2023-03-17T08:25:21;20.20;60.00
31379;DHT22;61664;48.112;11.662;2023-03-17T08:27:48;20.70;59.00
31379;DHT22;61664;48.112;11.662;2023-03-17T08:30:15;21.10;57.90
31379;DHT22;61664;48.112;11.662;2023-03-17T08:32:43;21.40;57.60
31379;DHT22;61664;48.112;11.662;2023-03-17T08:35:11;21.80;56.40
31379;DHT22;61664;48.112;11.662;2023-03-17T08:37:43;22.20;56.20
31379;DHT22;61664;48.112;11.662;2023-03-17T08:40:13;22.70;56.00
31379;DHT22;61664;48.112;11.662;2023-03-17T08:42:44;23.10;55.40
31379;DHT22;61664;48.112;11.662;2023-03-17T08:45:14;23.60;55.30
31379;DHT22;61664;48.112;11.662;2023-03-17T08:47:44;24.00;54.20
31379;DHT22;61664;48.112;11.662;2023-03-17T08:50:18;24.30;53.80
31379;DHT22;61664;48.112;11.662;2023-03-17T08:52:48;24.60;49.60
31379;DHT22;61664;48.112;11.662;2023-03-17T08:55:17;24.90;53.10
31379;DHT22;61664;48.112;11.662;2023-03-17T08:57:45;25.00;53.00
31379;DHT22;61664;48.112;11.662;2023-03-17T09:00:14;25.40;53.40
31379;DHT22;61664;48.112;11.662;2023-03-17T09:02:46;25.70;51.70
31379;DHT22;61664;48.112;11.662;2023-03-17T09:05:16;26.00;52.40
31379;DHT22;61664;48.112;11.662;2023-03-17T09:07:43;26.20;51.10
31379;DHT22;61664;48.112;11.662;2023-03-17T09:10:11;26.50;51.10
31379;DHT22;61664;48.112;11.662;2023-03-17T09:12:40;26.70;51.10
31379;DHT22;61664;48.112;11.662;2023-03-17T09:15:07;26.90;50.90
31379;DHT22;61664;48.112;11.662;2023-03-17T09:17:34;27.10;50.40
31379;DHT22;61664;48.112;11.662;2023-03-17T09:20:01;27.40;50.40
31379;DHT22;61664;48.112;11.662;2023-03-17T09:22:28;27.60;49.70
31379;DHT22;61664;48.112;11.662;2023-03-17T09:24:56;27.90;50.00
31379;DHT22;61664;48.112;11.662;2023-03-17T09:27:23;28.20;49.80
31379;DHT22;61664;48.112;11.662;2023-03-17T09:29:50;28.50;49.40
31379;DHT22;61664;48.112;11.662;2023-03-17T09:32:17;28.70;48.50
31379;DHT22;61664;48.112;11.662;2023-03-17T09:34:44;29.00;47.80
31379;DHT22;61664;48.112;11.662;2023-03-17T09:37:12;29.20;46.40
31379;DHT22;61664;48.112;11.662;2023-03-17T09:39:39;29.20;46.50
31379;DHT22;61664;48.112;11.662;2023-03-17T09:42:14;29.10;45.80
31379;DHT22;61664;48.112;11.662;2023-03-17T09:45:36;29.00;42.80
31379;DHT22;61664;48.112;11.662;2023-03-17T09:51:16;29.10;44.90
31379;DHT22;61664;48.112;11.662;2023-03-17T09:53:53;29.20;43.60
31379;DHT22;61664;48.112;11.662;2023-03-17T09:56:33;29.30;42.20
31379;DHT22;61664;48.112;11.662;2023-03-17T09:59:27;29.30;43.30
31379;DHT22;61664;48.112;11.662;2023-03-17T10:02:26;29.30;43.20
31379;DHT22;61664;48.112;11.662;2023-03-17T10:04:56;29.20;41.60
31379;DHT22;61664;48.112;11.662;2023-03-17T10:11:11;29.20;43.10
31379;DHT22;61664;48.112;11.662;2023-03-17T10:13:59;29.20;40.80
31379;DHT22;61664;48.112;11.662;2023-03-17T10:16:33;29.10;41.00
31379;DHT22;61664;48.112;11.662;2023-03-17T10:22:48;28.80;39.90
31379;DHT22;61664;48.112;11.662;2023-03-17T10:25:21;28.60;40.90
31379;DHT22;61664;48.112;11.662;2023-03-17T10:28:06;28.50;45.00
31379;DHT22;61664;48.112;11.662;2023-03-17T10:30:44;28.60;47.30
31379;DHT22;61664;48.112;11.662;2023-03-17T10:33:12;28.60;47.80
31379;DHT22;61664;48.112;11.662;2023-03-17T10:35:38;28.70;47.10
31379;DHT22;61664;48.112;11.662;2023-03-17T10:38:22;28.80;46.70
31379;DHT22;61664;48.112;11.662;2023-03-17T10:40:58;28.90;41.90
31379;DHT22;61664;48.112;11.662;2023-03-17T10:43:34;29.00;41.10
31379;DHT22;61664;48.112;11.662;2023-03-17T10:46:22;29.10;40.60
31379;DHT22;61664;48.112;11.662;2023-03-17T10:49:09;29.20;40.60
31379;DHT22;61664;48.112;11.662;2023-03-17T10:51:45;29.20;41.80
31379;DHT22;61664;48.112;11.662;2023-03-17T10:54:17;29.20;43.30
31379;DHT22;61664;48.112;11.662;2023-03-17T10:56:47;29.00;40.80
31379;DHT22;61664;48.112;11.662;2023-03-17T10:59:30;28.70;43.90
31379;DHT22;61664;48.112;11.662;2023-03-17T11:02:16;28.50;38.90
31379;DHT22;61664;48.112;11.662;2023-03-17T11:04:46;28.20;38.60
31379;DHT22;61664;48.112;11.662;2023-03-17T11:07:17;27.90;43.90
31379;DHT22;61664;48.112;11.662;2023-03-17T11:09:50;27.60;42.90
31379;DHT22;61664;48.112;11.662;2023-03-17T11:12:29;27.30;41.10
31379;DHT22;61664;48.112;11.662;2023-03-17T11:15:05;27.00;39.80
31379;DHT22;61664;48.112;11.662;2023-03-17T11:29:20;25.50;40.60
31379;DHT22;61664;48.112;11.662;2023-03-17T11:41:05;24.80;40.60
31379;DHT22;61664;48.112;11.662;2023-03-17T12:00:35;23.10;42.20
31379;DHT22;61664;48.112;11.662;2023-03-17T12:03:29;23.00;45.10
31379;DHT22;61664;48.112;11.662;2023-03-17T12:06:12;22.70;44.40
31379;DHT22;61664;48.112;11.662;2023-03-17T12:08:59;22.60;44.60
31379;DHT22;61664;48.112;11.662;2023-03-17T12:11:37;22.40;44.50
31379;DHT22;61664;48.112;11.662;2023-03-17T12:14:24;22.40;47.40
31379;DHT22;61664;48.112;11.662;2023-03-17T12:19:54;22.30;44.70
31379;DHT22;61664;48.112;11.662;2023-03-17T12:22:35;22.20;45.70
31379;DHT22;61664;48.112;11.662;2023-03-17T12:25:34;22.10;45.90
31379;DHT22;61664;48.112;11.662;2023-03-17T12:28:15;22.00;44.20
31379;DHT22;61664;48.112;11.662;2023-03-17T12:30:51;22.00;44.80
31379;DHT22;61664;48.112;11.662;2023-03-17T12:33:27;21.90;45.60
31379;DHT22;61664;48.112;11.662;2023-03-17T12:36:03;21.90;46.00
31379;DHT22;61664;48.112;11.662;2023-03-17T12:38:37;21.90;46.90
31379;DHT22;61664;48.112;11.662;2023-03-17T12:44:06;21.90;46.20
31379;DHT22;61664;48.112;11.662;2023-03-17T12:49:15;21.90;49.10
31379;DHT22;61664;48.112;11.662;2023-03-17T12:54:59;21.90;45.70
31379;DHT22;61664;48.112;11.662;2023-03-17T12:57:36;22.10;46.40
31379;DHT22;61664;48.112;11.662;2023-03-17T13:00:28;22.10;48.30
31379;DHT22;61664;48.112;11.662;2023-03-17T13:05:49;22.20;45.20
31379;DHT22;61664;48.112;11.662;2023-03-17T13:08:39;22.20;48.90
31379;DHT22;61664;48.112;11.662;2023-03-17T13:30:41;22.90;47.10
31379;DHT22;61664;48.112;11.662;2023-03-17T13:33:20;23.00;51.30
31379;DHT22;61664;48.112;11.662;2023-03-17T13:38:32;23.10;51.00
31379;DHT22;61664;48.112;11.662;2023-03-17T13:52:02;23.30;47.20
31379;DHT22;61664;48.112;11.662;2023-03-17T13:55:02;23.40;47.20
31379;DHT22;61664;48.112;11.662;2023-03-17T14:00:39;23.50;47.60
31379;DHT22;61664;48.112;11.662;2023-03-17T14:03:17;23.60;50.90
31379;DHT22;61664;48.112;11.662;2023-03-17T14:05:50;23.60;51.20
31379;DHT22;61664;48.112;11.662;2023-03-17T14:08:33;23.60;50.20
31379;DHT22;61664;48.112;11.662;2023-03-17T14:11:06;23.60;49.50
31379;DHT22;61664;48.112;11.662;2023-03-17T14:17:07;23.70;47.80
31379;DHT22;61664;48.112;11.662;2023-03-17T14:19:39;23.80;48.60
31379;DHT22;61664;48.112;11.662;2023-03-17T14:22:21;23.80;51.60
31379;DHT22;61664;48.112;11.662;2023-03-17T14:24:54;23.80;46.90
31379;DHT22;61664;48.112;11.662;2023-03-17T14:27:26;23.90;49.20
31379;DHT22;61664;48.112;11.662;2023-03-17T14:29:54;24.00;51.60
31379;DHT22;61664;48.112;11.662;2023-03-17T14:32:23;24.00;52.20
31379;DHT22;61664;48.112;11.662;2023-03-17T14:34:56;24.20;51.30
31379;DHT22;61664;48.112;11.662;2023-03-17T14:37:26;24.30;48.50
31379;DHT22;61664;48.112;11.662;2023-03-17T14:39:55;24.40;50.90
31379;DHT22;61664;48.112;11.662;2023-03-17T14:42:28;24.60;50.70
31379;DHT22;61664;48.112;11.662;2023-03-17T14:45:04;24.70;48.60
31379;DHT22;61664;48.112;11.662;2023-03-17T14:47:39;24.80;46.60
31379;DHT22;61664;48.112;11.662;2023-03-17T14:50:17;24.80;47.10
31379;DHT22;61664;48.112;11.662;2023-03-17T14:52:51;24.70;45.80
31379;DHT22;61664;48.112;11.662;2023-03-17T14:55:18;24.50;49.00
31379;DHT22;61664;48.112;11.662;2023-03-17T14:57:50;24.40;48.50
31379;DHT22;61664;48.112;11.662;2023-03-17T15:00:33;24.20;46.00
31379;DHT22;61664;48.112;11.662;2023-03-17T15:03:14;24.00;44.60
31379;DHT22;61664;48.112;11.662;2023-03-17T15:05:45;23.90;48.10
31379;DHT22;61664;48.112;11.662;2023-03-17T15:11:04;23.50;46.10
31379;DHT22;61664;48.112;11.662;2023-03-17T15:13:35;23.30;49.80
31379;DHT22;61664;48.112;11.662;2023-03-17T15:16:22;23.20;49.40
31379;DHT22;61664;48.112;11.662;2023-03-17T15:19:19;23.10;46.70
31379;DHT22;61664;48.112;11.662;2023-03-17T15:21:53;23.00;46.90
31379;DHT22;61664;48.112;11.662;2023-03-17T15:24:39;23.00;51.10
31379;DHT22;61664;48.112;11.662;2023-03-17T15:29:41;23.00;49.90
31379;DHT22;61664;48.112;11.662;2023-03-17T15:32:19;23.00;51.40
31379;DHT22;61664;48.112;11.662;2023-03-17T15:34:50;23.10;47.90
31379;DHT22;61664;48.112;11.662;2023-03-17T15:37:22;23.20;51.50
31379;DHT22;61664;48.112;11.662;2023-03-17T15:39:51;23.30;51.40
31379;DHT22;61664;48.112;11.662;2023-03-17T15:42:23;23.40;51.90
31379;DHT22;61664;48.112;11.662;2023-03-17T15:44:52;23.60;51.60
31379;DHT22;61664;48.112;11.662;2023-03-17T15:47:21;23.70;52.40
31379;DHT22;61664;48.112;11.662;2023-03-17T15:49:56;23.90;52.30
31379;DHT22;61664;48.112;11.662;2023-03-17T15:52:26;24.20;51.70
31379;DHT22;61664;48.112;11.662;2023-03-17T15:54:56;24.50;52.40
31379;DHT22;61664;48.112;11.662;2023-03-17T15:57:24;24.70;52.20
31379;DHT22;61664;48.112;11.662;2023-03-17T15:59:52;25.00;52.50
31379;DHT22;61664;48.112;11.662;2023-03-17T16:02:28;25.20;51.90
31379;DHT22;61664;48.112;11.662;2023-03-17T16:04:56;25.50;48.10
31379;DHT22;61664;48.112;11.662;2023-03-17T16:07:24;25.80;52.80
31379;DHT22;61664;48.112;11.662;2023-03-17T16:09:52;26.10;52.00
31379;DHT22;61664;48.112;11.662;2023-03-17T16:12:18;26.40;51.40
31379;DHT22;61664;48.112;11.662;2023-03-17T16:14:49;26.60;50.80
31379;DHT22;61664;48.112;11.662;2023-03-17T16:17:26;26.80;50.40
31379;DHT22;61664;48.112;11.662;2023-03-17T16:19:56;27.00;45.90
31379;DHT22;61664;48.112;11.662;2023-03-17T16:22:38;27.10;50.90
31379;DHT22;61664;48.112;11.662;2023-03-17T16:25:20;27.30;44.90
31379;DHT22;61664;48.112;11.662;2023-03-17T16:27:55;27.40;44.50
31379;DHT22;61664;48.112;11.662;2023-03-17T16:30:27;27.30;48.60
31379;DHT22;61664;48.112;11.662;2023-03-17T16:33:03;27.20;47.10
31379;DHT22;61664;48.112;11.662;2023-03-17T16:35:40;26.80;44.40
31379;DHT22;61664;48.112;11.662;2023-03-17T16:38:13;26.40;44.90
31379;DHT22;61664;48.112;11.662;2023-03-17T16:40:46;25.90;43.60
31379;DHT22;61664;48.112;11.662;2023-03-17T16:43:30;25.40;44.10
31379;DHT22;61664;48.112;11.662;2023-03-17T16:46:03;24.80;41.50
31379;DHT22;61664;48.112;11.662;2023-03-17T16:48:31;24.30;44.40
31379;DHT22;61664;48.112;11.662;2023-03-17T16:51:00;23.80;45.20
31379;DHT22;61664;48.112;11.662;2023-03-17T16:53:27;23.30;45.50
31379;DHT22;61664;48.112;11.662;2023-03-17T16:55:54;22.80;45.80
31379;DHT22;61664;48.112;11.662;2023-03-17T16:58:30;22.40;46.00
31379;DHT22;61664;48.112;11.662;2023-03-17T17:01:01;21.90;44.00
31379;DHT22;61664;48.112;11.662;2023-03-17T17:03:31;21.60;46.70
31379;DHT22;61664;48.112;11.662;2023-03-17T17:05:58;21.20;47.40
31379;DHT22;61664;48.112;11.662;2023-03-17T17:08:25;20.90;47.70
31379;DHT22;61664;48.112;11.662;2023-03-17T17:10:52;20.60;48.00
31379;DHT22;61664;48.112;11.662;2023-03-17T17:13:19;20.30;48.20
31379;DHT22;61664;48.112;11.662;2023-03-17T17:15:46;20.00;48.50
31379;DHT22;61664;48.112;11.662;2023-03-17T17:18:16;19.70;48.70
31379;DHT22;61664;48.112;11.662;2023-03-17T17:20:44;19.40;48.90
31379;DHT22;61664;48.112;11.662;2023-03-17T17:23:14;19.20;47.50
31379;DHT22;61664;48.112;11.662;2023-03-17T17:25:43;19.00;50.20
31379;DHT22;61664;48.112;11.662;2023-03-17T17:28:14;18.70;50.60
31379;DHT22;61664;48.112;11.662;2023-03-17T17:30:43;18.50;50.70
31379;DHT22;61664;48.112;11.662;2023-03-17T17:33:14;18.30;51.10
31379;DHT22;61664;48.112;11.662;2023-03-17T17:35:42;18.10;51.30
31379;DHT22;61664;48.112;11.662;2023-03-17T17:38:19;17.90;51.50